Time;durP1;ratioP1;P1;durP2;ratioP2;P2;SDS_P1;SDS_P2;PMS_P1;PMS_P2;Temp;Humidity;BMP_temperature;BMP_pressure;BME280_temperature;BME280_humidity;BME280_pressure;Samples;Min_cycle;Max_cycle;Signal;HPM_P1;HPM_P2
2021/10/14 00:00:38;;;;;;;7.43;4.80;;;;;;;7.57;72.56;99481.37;1791972;79;21761;-53
2021/10/14 00:03:05;;;;;;;7.78;4.90;;;;;;;7.53;72.61;99489.14;1783175;79;21013;-55
2021/10/14 00:05:32;;;;;;;6.43;4.07;;;;;;;7.50;72.75;99491.92;1784153;79;21057;-54
2021/10/14 00:07:59;;;;;;;8.43;3.80;;;;;;;7.49;72.84;99495.53;1776812;79;21101;-53
2021/10/14 00:10:26;;;;;;;8.97;4.80;;;;;;;7.49;72.95;99503.57;1778461;79;21013;-53
2021/10/14 00:12:54;;;;;;;7.43;5.30;;;;;;;7.49;72.97;99497.34;1778214;79;22446;-55
2021/10/14 00:15:21;;;;;;;7.47;4.80;;;;;;;7.46;73.01;99497.02;1782509;79;21226;-53
2021/10/14 00:17:47;;;;;;;8.30;5.63;;;;;;;7.44;73.10;99495.32;1789626;79;22548;-53
2021/10/14 00:20:14;;;;;;;4.73;4.33;;;;;;;7.41;73.14;99500.32;1781090;79;21404;-54
2021/10/14 00:22:40;;;;;;;5.67;3.67;;;;;;;7.40;73.22;99503.92;1777515;79;21609;-55
2021/10/14 00:25:08;;;;;;;6.10;4.97;;;;;;;7.42;73.26;99503.88;1789327;79;21472;-55
2021/10/14 00:27:34;;;;;;;7.00;3.90;;;;;;;7.39;73.31;99502.22;1782862;79;20946;-53
2021/10/14 00:30:01;;;;;;;4.53;3.27;;;;;;;7.40;73.38;99505.27;1755526;79;21084;-54
2021/10/14 00:32:27;;;;;;;9.20;4.60;;;;;;;7.40;73.42;99505.27;1777573;79;21053;-53
2021/10/14 00:34:54;;;;;;;4.67;4.10;;;;;;;7.41;73.47;99515.05;1786762;79;21107;-55
2021/10/14 00:37:20;;;;;;;7.93;4.90;;;;;;;7.43;73.42;99526.58;1781212;79;22527;-55
2021/10/14 00:39:47;;;;;;;9.50;6.23;;;;;;;7.41;73.41;99517.73;1779409;79;21037;-54
2021/10/14 00:42:13;;;;;;;9.50;4.73;;;;;;;7.37;73.42;99521.94;1781838;79;21453;-53
2021/10/14 00:44:46;;;;;;;6.63;4.50;;;;;;;7.35;73.51;99515.77;1782546;79;21536;-53
2021/10/14 00:47:25;;;;;;;4.73;3.80;;;;;;;7.33;73.58;99522.51;1785161;79;20934;-54
2021/10/14 00:49:52;;;;;;;7.30;4.03;;;;;;;7.34;73.66;99525.59;1785805;77;21078;-54
2021/10/14 00:52:18;;;;;;;7.10;3.90;;;;;;;7.36;73.68;99518.39;1786683;79;20961;-55
2021/10/14 00:54:46;;;;;;;5.43;3.70;;;;;;;7.40;73.66;99528.03;1782887;77;20910;-54
2021/10/14 00:57:12;;;;;;;9.27;5.23;;;;;;;7.42;73.65;99522.62;1785143;79;21369;-54
2021/10/14 00:59:40;;;;;;;7.67;5.03;;;;;;;7.43;73.60;99523.91;1786243;77;21912;-54
2021/10/14 01:02:06;;;;;;;6.53;5.70;;;;;;;7.46;73.53;99526.47;1763040;79;21527;-54
2021/10/14 01:04:33;;;;;;;8.37;5.17;;;;;;;7.46;73.43;99521.12;1789040;79;20867;-53
2021/10/14 01:07:00;;;;;;;5.23;4.33;;;;;;;7.44;73.35;99524.31;1784670;79;20941;-54
2021/10/14 01:09:26;;;;;;;5.23;4.17;;;;;;;7.39;73.34;99524.09;1787052;78;20910;-55
2021/10/14 01:11:53;;;;;;;5.97;3.60;;;;;;;7.36;73.40;99530.90;1786833;79;20902;-53
2021/10/14 01:14:19;;;;;;;5.20;3.83;;;;;;;7.33;73.42;99539.04;1785902;78;21059;-53
2021/10/14 01:16:46;;;;;;;6.93;3.63;;;;;;;7.32;73.44;99538.63;1785180;79;20886;-53
2021/10/14 01:19:14;;;;;;;7.67;3.63;;;;;;;7.29;73.44;99549.02;1787607;79;20953;-54
2021/10/14 01:21:41;;;;;;;5.63;3.73;;;;;;;7.29;73.49;99546.34;1789815;79;21425;-53
2021/10/14 01:24:07;;;;;;;7.33;4.37;;;;;;;7.31;73.43;99555.19;1782174;79;21450;-55
2021/10/14 01:26:36;;;;;;;8.17;5.17;;;;;;;7.29;73.41;99559.72;1780474;79;21117;-54
2021/10/14 01:29:03;;;;;;;5.03;3.67;;;;;;;7.27;73.38;99563.38;1776954;79;21567;-53
2021/10/14 01:31:29;;;;;;;9.37;4.93;;;;;;;7.24;73.38;99556.33;1781886;79;21563;-53
2021/10/14 01:33:55;;;;;;;4.77;2.57;;;;;;;7.20;73.42;99562.75;1783374;79;21432;-54
2021/10/14 01:36:22;;;;;;;4.93;2.37;;;;;;;7.17;73.43;99566.86;1782650;79;21418;-53
2021/10/14 01:38:49;;;;;;;5.43;2.57;;;;;;;7.16;73.48;99574.02;1782590;79;21336;-53
2021/10/14 01:41:15;;;;;;;2.97;2.37;;;;;;;7.15;73.52;99568.25;1783572;79;21554;-54
2021/10/14 01:43:42;;;;;;;3.97;3.20;;;;;;;7.17;73.58;99574.89;1784498;79;21065;-53
2021/10/14 01:46:08;;;;;;;5.43;3.37;;;;;;;7.17;73.53;99573.09;1779109;77;21357;-55
2021/10/14 01:48:35;;;;;;;6.80;3.70;;;;;;;7.17;73.51;99573.55;1785238;79;21645;-55
2021/10/14 01:51:02;;;;;;;8.23;4.30;;;;;;;7.16;73.51;99570.47;1782093;79;22284;-54
2021/10/14 01:53:28;;;;;;;4.80;3.20;;;;;;;7.14;73.51;99578.58;1783994;79;21507;-55
2021/10/14 01:55:55;;;;;;;7.47;3.50;;;;;;;7.09;73.49;99581.87;1782601;79;21582;-55
2021/10/14 01:58:21;;;;;;;4.43;2.90;;;;;;;7.04;73.60;99591.01;1782362;79;21061;-55
2021/10/14 02:00:49;;;;;;;7.07;3.30;;;;;;;7.01;73.69;99601.81;1721326;81;21049;-55
2021/10/14 02:03:16;;;;;;;6.83;3.63;;;;;;;6.97;73.81;99597.52;1784721;79;22303;-54
2021/10/14 02:05:43;;;;;;;4.63;2.17;;;;;;;6.95;73.93;99605.59;1779475;78;21713;-54
2021/10/14 02:08:11;;;;;;;3.33;2.67;;;;;;;6.92;74.00;99611.51;1780476;79;21061;-55
2021/10/14 02:10:38;;;;;;;6.73;3.37;;;;;;;6.92;74.08;99604.36;1786261;79;21395;-54
2021/10/14 02:13:04;;;;;;;5.70;3.43;;;;;;;6.93;74.10;99610.12;1781792;79;21391;-55
2021/10/14 02:15:31;;;;;;;5.73;4.60;;;;;;;6.93;74.07;99610.58;1780776;79;22579;-55
2021/10/14 02:17:57;;;;;;;7.53;3.87;;;;;;;6.91;74.07;99607.08;1782615;79;21447;-55
2021/10/14 02:20:24;;;;;;;5.90;4.10;;;;;;;6.88;74.00;99614.78;1779801;79;21509;-55
2021/10/14 02:22:50;;;;;;;7.63;3.53;;;;;;;6.81;73.98;99616.77;1781041;79;22372;-55
2021/10/14 02:25:17;;;;;;;5.20;3.73;;;;;;;6.76;74.00;99625.43;1778720;79;22834;-55
2021/10/14 02:27:44;;;;;;;6.47;4.20;;;;;;;6.72;73.99;99626.94;1787926;77;22611;-53
2021/10/14 02:30:11;;;;;;;6.00;4.33;;;;;;;6.66;74.10;99628.01;1782107;79;21487;-55
2021/10/14 02:32:37;;;;;;;9.77;6.53;;;;;;;6.63;74.16;99636.62;1784892;79;21327;-54
2021/10/14 02:35:05;;;;;;;6.70;5.77;;;;;;;6.57;74.11;99628.31;1781663;79;21677;-55
2021/10/14 02:37:31;;;;;;;10.23;6.63;;;;;;;6.50;74.18;99633.47;1787293;78;21261;-55
2021/10/14 02:39:58;;;;;;;7.70;5.60;;;;;;;6.42;74.17;99645.76;1780431;79;21144;-54
2021/10/14 02:42:24;;;;;;;8.03;5.20;;;;;;;6.36;74.21;99651.78;1783758;78;21551;-56
2021/10/14 02:44:50;;;;;;;10.73;5.77;;;;;;;6.28;74.27;99651.16;1779275;79;21068;-55
2021/10/14 02:47:17;;;;;;;7.23;5.93;;;;;;;6.20;74.40;99646.06;1782073;79;21076;-55
2021/10/14 02:49:43;;;;;;;8.40;5.23;;;;;;;6.13;74.47;99655.17;1782127;79;21029;-55
2021/10/14 02:52:09;;;;;;;5.27;4.80;;;;;;;6.09;74.54;99650.86;1774762;79;21112;-55
2021/10/14 02:54:35;;;;;;;5.87;3.40;;;;;;;6.04;74.60;99652.33;1780846;79;21092;-55
2021/10/14 02:57:02;;;;;;;4.97;4.07;;;;;;;5.99;74.71;99660.08;1785222;79;22584;-55
2021/10/14 02:59:28;;;;;;;7.10;4.77;;;;;;;5.96;74.77;99658.83;1781983;79;22602;-54
2021/10/14 03:01:55;;;;;;;5.93;5.07;;;;;;;5.94;74.76;99660.23;1782166;78;21121;-55
2021/10/14 03:04:21;;;;;;;5.10;4.17;;;;;;;5.91;74.78;99660.78;1787159;79;21108;-54
2021/10/14 03:06:48;;;;;;;9.57;5.33;;;;;;;5.88;74.83;99660.86;1775733;79;21064;-55
2021/10/14 03:09:14;;;;;;;5.10;4.53;;;;;;;5.84;74.81;99663.20;1784753;79;21080;-55
2021/10/14 03:11:40;;;;;;;9.97;6.50;;;;;;;5.78;74.82;99658.05;1780312;79;21753;-55
2021/10/14 03:14:06;;;;;;;6.40;5.03;;;;;;;5.68;74.90;99658.33;1785098;79;21518;-55
2021/10/14 03:16:33;;;;;;;7.70;4.10;;;;;;;5.60;74.92;99660.81;1779784;77;21084;-55
2021/10/14 03:18:59;;;;;;;13.43;5.40;;;;;;;5.53;74.99;99669.92;1782007;79;21544;-54
2021/10/14 03:21:26;;;;;;;6.53;4.43;;;;;;;5.48;75.17;99671.84;1775570;79;21394;-54
2021/10/14 03:23:52;;;;;;;6.10;4.47;;;;;;;5.45;75.31;99669.23;1784305;79;21472;-55
2021/10/14 03:26:18;;;;;;;5.73;5.23;;;;;;;5.43;75.32;99671.98;1779809;79;21586;-55
2021/10/14 03:28:44;;;;;;;5.93;4.83;;;;;;;5.39;75.40;99676.97;1780944;79;22671;-55
2021/10/14 03:31:11;;;;;;;6.10;5.33;;;;;;;5.36;75.46;99676.20;1781099;78;21025;-56
2021/10/14 03:33:38;;;;;;;6.60;5.57;;;;;;;5.33;75.51;99679.83;1782171;79;21096;-56
2021/10/14 03:36:04;;;;;;;7.33;6.60;;;;;;;5.28;75.50;99680.40;1779358;79;21061;-57
2021/10/14 03:38:32;;;;;;;7.53;6.73;;;;;;;5.22;75.55;99686.80;1778961;79;21033;-56
2021/10/14 03:40:58;;;;;;;7.97;5.73;;;;;;;5.17;75.64;99686.05;1781565;79;21785;-56
2021/10/14 03:43:24;;;;;;;13.10;5.53;;;;;;;5.15;75.70;99687.00;1785493;78;21436;-56
2021/10/14 03:45:51;;;;;;;9.13;5.80;;;;;;;5.11;75.80;99689.33;1788374;77;22368;-57
2021/10/14 03:48:17;;;;;;;9.30;4.90;;;;;;;5.09;75.79;99695.19;1785732;78;21069;-57
2021/10/14 03:50:43;;;;;;;9.10;5.63;;;;;;;5.09;75.92;99696.06;1793078;78;21104;-56
2021/10/14 03:53:10;;;;;;;7.37;5.90;;;;;;;5.12;75.96;99701.75;1788595;78;21134;-56
2021/10/14 03:55:36;;;;;;;7.83;6.33;;;;;;;5.12;75.94;99699.95;1790988;78;21642;-56
2021/10/14 03:58:02;;;;;;;9.43;6.97;;;;;;;5.10;75.88;99711.61;1787027;78;20969;-56
2021/10/14 04:00:29;;;;;;;8.50;7.70;;;;;;;5.06;75.90;99708.59;1795127;78;21018;-56
2021/10/14 04:02:56;;;;;;;8.70;7.37;;;;;;;5.00;75.89;99714.98;1786290;77;21598;-56
2021/10/14 04:05:22;;;;;;;9.93;8.03;;;;;;;4.97;75.94;99711.50;1788670;78;21016;-56
2021/10/14 04:07:48;;;;;;;8.67;6.77;;;;;;;4.90;75.97;99721.46;1792923;78;21736;-55
2021/10/14 04:10:15;;;;;;;10.03;6.53;;;;;;;4.85;76.06;99720.69;1788124;78;21856;-56
2021/10/14 04:12:42;;;;;;;9.57;7.60;;;;;;;4.83;76.16;99725.20;1790709;78;21056;-56
2021/10/14 04:15:09;;;;;;;9.47;7.50;;;;;;;4.82;76.19;99722.12;1789012;78;21597;-56
2021/10/14 04:17:36;;;;;;;11.43;9.73;;;;;;;4.81;76.24;99731.91;1795232;78;20977;-57
2021/10/14 04:20:05;;;;;;;11.40;9.73;;;;;;;4.81;76.43;99729.23;1789802;78;21063;-57
2021/10/14 04:22:31;;;;;;;16.43;10.67;;;;;;;4.86;76.46;99731.78;1793269;78;20906;-57
2021/10/14 04:24:58;;;;;;;17.70;11.20;;;;;;;4.85;76.47;99726.90;1792267;77;20882;-54
2021/10/14 04:27:24;;;;;;;17.67;11.17;;;;;;;4.86;76.54;99735.77;1789686;78;21120;-53
2021/10/14 04:29:50;;;;;;;17.37;11.13;;;;;;;4.84;76.56;99732.30;1789467;78;22478;-54
2021/10/14 04:32:16;;;;;;;14.07;10.10;;;;;;;4.81;76.66;99745.24;1788473;78;21298;-54
2021/10/14 04:34:43;;;;;;;14.97;10.40;;;;;;;4.79;76.77;99748.40;1791020;78;21517;-55
2021/10/14 04:37:09;;;;;;;15.30;9.50;;;;;;;4.77;76.85;99746.22;1797501;78;21571;-56
2021/10/14 04:39:37;;;;;;;13.30;8.63;;;;;;;4.77;76.99;99744.00;1786435;78;21805;-56
2021/10/14 04:42:05;;;;;;;12.57;8.53;;;;;;;4.77;77.13;99746.67;1792540;78;22760;-55
2021/10/14 04:44:34;;;;;;;11.27;8.30;;;;;;;4.78;77.20;99755.09;1795437;78;21533;-56
2021/10/14 04:47:04;;;;;;;11.83;8.37;;;;;;;4.81;77.34;99761.70;1788790;78;21455;-56
2021/10/14 04:49:31;;;;;;;14.53;9.47;;;;;;;4.84;77.47;99758.52;1788997;78;21492;-55
2021/10/14 04:51:58;;;;;;;11.10;7.67;;;;;;;4.88;77.57;99763.30;1788573;78;21582;-56
2021/10/14 04:54:25;;;;;;;10.87;8.00;;;;;;;4.93;77.61;99767.58;1788883;78;21036;-55
2021/10/14 04:56:51;;;;;;;13.03;9.57;;;;;;;4.93;77.60;99772.92;1794342;78;20973;-55
2021/10/14 04:59:17;;;;;;;13.47;8.83;;;;;;;4.93;77.67;99772.08;1793506;78;21689;-56
2021/10/14 05:01:44;;;;;;;10.40;8.87;;;;;;;4.93;77.75;99781.41;1788563;78;22149;-55
2021/10/14 05:04:10;;;;;;;12.73;9.63;;;;;;;4.93;77.79;99785.41;1796741;78;21504;-54
2021/10/14 05:06:38;;;;;;;11.20;8.20;;;;;;;4.93;77.87;99794.75;1790636;78;22317;-54
2021/10/14 05:09:04;;;;;;;12.60;7.17;;;;;;;4.94;78.00;99793.34;1789982;78;21044;-53
2021/10/14 05:11:31;;;;;;;9.17;7.33;;;;;;;4.97;78.15;99801.74;1791604;78;20969;-54
2021/10/14 05:13:57;;;;;;;11.07;7.50;;;;;;;5.02;78.22;99794.98;1788812;78;21517;-54
2021/10/14 05:16:24;;;;;;;8.37;7.50;;;;;;;5.08;78.22;99804.15;1793076;78;21068;-53
2021/10/14 05:18:50;;;;;;;12.03;8.67;;;;;;;5.12;78.23;99804.02;1792542;78;21821;-55
2021/10/14 05:21:17;;;;;;;10.50;8.70;;;;;;;5.15;78.23;99809.29;1787658;78;21025;-56
2021/10/14 05:23:43;;;;;;;10.70;8.57;;;;;;;5.19;78.26;99814.95;1792156;78;21124;-56
2021/10/14 05:26:10;;;;;;;15.03;10.60;;;;;;;5.23;78.23;99818.43;1791398;77;21072;-55
2021/10/14 05:28:36;;;;;;;11.83;9.77;;;;;;;5.22;78.14;99826.89;1789279;78;21359;-56
2021/10/14 05:31:02;;;;;;;17.03;11.43;;;;;;;5.21;78.19;99826.47;1787760;78;22271;-55
2021/10/14 05:33:29;;;;;;;12.07;9.23;;;;;;;5.23;78.27;99829.11;1790019;78;21636;-56
2021/10/14 05:35:55;;;;;;;14.50;9.43;;;;;;;5.25;78.29;99828.16;1795098;78;21053;-55
2021/10/14 05:38:21;;;;;;;12.97;9.40;;;;;;;5.26;78.29;99830.38;1789250;78;21067;-55
2021/10/14 05:40:48;;;;;;;13.27;8.97;;;;;;;5.28;78.32;99829.85;1789306;78;21052;-55
2021/10/14 05:43:15;;;;;;;11.23;8.77;;;;;;;5.30;78.41;99841.37;1787278;78;21551;-56
2021/10/14 05:45:42;;;;;;;10.73;8.83;;;;;;;5.33;78.39;99832.84;1785059;79;21057;-55
2021/10/14 05:48:08;;;;;;;11.37;8.13;;;;;;;5.38;78.46;99837.17;1782912;77;21567;-55
2021/10/14 05:50:34;;;;;;;12.03;9.40;;;;;;;5.44;78.36;99837.91;1781501;79;21045;-57
2021/10/14 05:53:01;;;;;;;11.13;9.57;;;;;;;5.45;78.39;99842.30;1786554;79;21037;-56
2021/10/14 05:55:27;;;;;;;17.33;11.07;;;;;;;5.49;78.37;99842.66;1779830;79;21108;-56
2021/10/14 05:57:53;;;;;;;11.67;10.43;;;;;;;5.52;78.34;99848.39;1779663;77;21659;-56
2021/10/14 06:00:21;;;;;;;11.93;10.33;;;;;;;5.55;78.27;99842.95;1783945;79;21041;-55
2021/10/14 06:02:47;;;;;;;14.33;11.77;;;;;;;5.58;78.20;99850.89;1780506;79;22158;-56
2021/10/14 06:07:59;;;;;;;14.83;10.77;;;;;;;5.65;78.08;99851.14;1847522;75;22413;-55
2021/10/14 06:10:25;;;;;;;12.27;9.20;;;;;;;5.63;78.11;99852.97;1847265;76;21467;-55
2021/10/14 06:12:52;;;;;;;13.50;8.77;;;;;;;5.65;78.09;99859.15;1844152;75;21209;-56
2021/10/14 06:15:18;;;;;;;12.10;10.40;;;;;;;5.70;78.12;99859.43;1844218;75;21015;-55
2021/10/14 06:17:45;;;;;;;14.00;11.37;;;;;;;5.78;78.16;99871.28;1844600;75;20923;-56
2021/10/14 06:20:11;;;;;;;16.73;11.73;;;;;;;5.85;78.03;99869.30;1848449;75;21096;-55
2021/10/14 06:22:38;;;;;;;16.37;12.53;;;;;;;5.89;77.91;99872.33;1843393;75;20993;-55
2021/10/14 06:25:06;;;;;;;15.00;11.87;;;;;;;5.92;77.82;99877.14;1846373;75;21613;-55
2021/10/14 06:27:34;;;;;;;14.17;11.47;;;;;;;5.95;77.80;99885.08;1854625;75;20844;-55
2021/10/14 06:30:00;;;;;;;14.37;10.97;;;;;;;5.98;77.71;99882.77;1849971;75;20915;-55
2021/10/14 06:32:26;;;;;;;13.37;10.70;;;;;;;6.02;77.76;99881.78;1839832;75;20852;-56
2021/10/14 06:34:53;;;;;;;15.67;11.33;;;;;;;6.07;77.72;99883.39;1833704;76;20955;-55
2021/10/14 06:37:20;;;;;;;14.53;9.93;;;;;;;6.13;77.61;99887.67;1768401;79;22204;-56
2021/10/14 06:39:46;;;;;;;12.17;9.77;;;;;;;6.20;77.62;99887.07;1765810;80;21453;-56
2021/10/14 06:42:13;;;;;;;14.73;9.83;;;;;;;6.31;77.55;99884.94;1781597;78;21333;-55
2021/10/14 06:44:39;;;;;;;15.63;9.87;;;;;;;6.39;77.33;99891.82;1775921;79;21363;-56
2021/10/14 06:47:05;;;;;;;15.33;10.47;;;;;;;6.47;77.17;99890.26;1760540;80;20923;-55
2021/10/14 06:49:31;;;;;;;12.70;9.27;;;;;;;6.53;76.99;99894.11;1797661;79;21678;-57
2021/10/14 06:51:58;;;;;;;13.43;9.83;;;;;;;6.58;76.81;99893.50;1765652;79;20926;-56
2021/10/14 06:54:24;;;;;;;10.50;9.33;;;;;;;6.60;76.71;99895.67;1795803;79;21460;-56
2021/10/14 06:56:50;;;;;;;10.83;8.53;;;;;;;6.65;76.62;99891.52;1791937;78;21767;-54
2021/10/14 06:59:17;;;;;;;14.03;8.67;;;;;;;6.71;76.42;99898.03;1792021;79;20863;-55
2021/10/14 07:01:44;;;;;;;9.33;8.40;;;;;;;6.76;76.30;99888.94;1763086;80;21332;-56
2021/10/14 07:04:10;;;;;;;8.33;7.47;;;;;;;6.84;76.10;99898.06;1789962;79;20950;-55
2021/10/14 07:06:36;;;;;;;9.57;8.57;;;;;;;6.94;75.88;99896.86;1773327;79;21094;-56
2021/10/14 07:09:02;;;;;;;11.17;8.47;;;;;;;7.04;75.77;99901.47;1775398;80;21591;-55
2021/10/14 07:11:32;;;;;;;11.30;8.23;;;;;;;7.12;75.57;99892.27;1775369;79;22401;-55
2021/10/14 07:13:59;;;;;;;12.93;9.30;;;;;;;7.23;75.42;99900.81;1775856;80;21172;-55
2021/10/14 07:16:27;;;;;;;11.40;8.70;;;;;;;7.33;75.08;99904.06;1774712;80;21088;-57
2021/10/14 07:18:54;;;;;;;14.63;8.80;;;;;;;7.43;74.83;99910.88;1774192;79;21105;-55
2021/10/14 07:21:21;;;;;;;10.50;7.60;;;;;;;7.53;74.48;99914.14;1773619;80;21081;-55
2021/10/14 07:23:47;;;;;;;10.37;8.00;;;;;;;7.58;74.07;99905.47;1776438;79;21584;-54
2021/10/14 07:26:13;;;;;;;11.65;8.45;;;;;;;7.65;73.79;99906.16;1773705;79;21163;-56
2021/10/14 07:28:40;;;;;;;10.93;8.60;;;;;;;7.69;73.58;99907.80;1772006;80;21047;-55
2021/10/14 07:31:06;;;;;;;11.93;9.50;;;;;;;7.71;73.25;99905.48;1771868;79;21081;-56
2021/10/14 07:33:34;;;;;;;13.33;9.53;;;;;;;7.74;73.08;99915.23;1769355;80;21100;-55
2021/10/14 07:36:01;;;;;;;10.90;8.97;;;;;;;7.75;72.96;99917.83;1774153;80;21503;-55
2021/10/14 07:38:27;;;;;;;10.90;8.98;;;;;;;7.77;72.84;99909.28;1770146;80;22475;-55
2021/10/14 07:40:53;;;;;;;11.80;8.57;;;;;;;7.79;72.64;99910.58;1771248;79;21610;-55
2021/10/14 07:43:19;;;;;;;11.40;8.10;;;;;;;7.80;72.57;99914.55;1772919;79;21022;-54
2021/10/14 07:45:47;;;;;;;10.13;9.03;;;;;;;7.84;72.51;99913.50;1775986;79;21085;-54
2021/10/14 07:48:14;;;;;;;12.67;8.30;;;;;;;7.91;72.48;99917.71;1772329;79;21088;-54
2021/10/14 07:50:41;;;;;;;10.33;7.43;;;;;;;7.98;72.26;99919.27;1769979;79;21923;-55
2021/10/14 07:53:18;;;;;;;13.38;9.70;;;;;;;8.07;72.10;99922.09;1771445;80;21033;-54
2021/10/14 07:55:45;;;;;;;13.10;10.37;;;;;;;8.12;71.87;99920.12;1774167;80;20954;-55
2021/10/14 07:58:11;;;;;;;13.23;10.60;;;;;;;8.19;71.89;99924.79;1773862;80;21029;-55
2021/10/14 08:00:39;;;;;;;11.38;8.75;;;;;;;8.25;71.59;99925.94;1773608;80;21469;-56
2021/10/14 08:03:05;;;;;;;13.70;8.58;;;;;;;8.28;71.39;99925.80;1776156;80;22064;-55
2021/10/14 08:05:33;;;;;;;10.53;7.78;;;;;;;8.30;71.25;99928.84;1773165;80;21053;-55
2021/10/14 08:08:00;;;;;;;8.95;7.28;;;;;;;8.32;71.11;99923.00;1775503;79;21541;-55
2021/10/14 08:10:27;;;;;;;12.85;7.55;;;;;;;8.37;70.98;99925.97;1773029;80;21045;-55
2021/10/14 08:12:54;;;;;;;10.75;8.03;;;;;;;8.41;70.98;99930.30;1769056;79;21597;-55
2021/10/14 08:15:20;;;;;;;8.35;7.53;;;;;;;8.43;70.85;99933.78;1769242;79;21571;-54
2021/10/14 08:17:47;;;;;;;14.60;8.38;;;;;;;8.47;70.73;99936.78;1767888;79;22534;-55
2021/10/14 08:20:14;;;;;;;11.00;8.83;;;;;;;8.48;70.51;99930.48;1769689;79;21942;-54
2021/10/14 08:22:40;;;;;;;11.73;7.67;;;;;;;8.47;70.49;99936.78;1767436;79;21092;-56
2021/10/14 08:25:09;;;;;;;15.72;8.20;;;;;;;8.48;70.44;99931.83;1774619;79;21128;-56
2021/10/14 08:27:35;;;;;;;9.53;7.37;;;;;;;8.55;70.46;99936.03;1770698;79;21103;-55
2021/10/14 08:30:05;;;;;;;9.03;7.03;;;;;;;8.63;70.53;99933.93;1771000;79;21036;-54
2021/10/14 08:32:31;;;;;;;14.03;8.63;;;;;;;8.72;70.46;99931.78;1780465;79;20853;-55
2021/10/14 08:34:58;;;;;;;10.80;8.98;;;;;;;8.87;70.20;99936.15;1776902;79;21297;-55
2021/10/14 08:37:24;;;;;;;10.85;8.30;;;;;;;8.99;69.99;99937.91;1770987;79;21401;-55
2021/10/14 08:39:51;;;;;;;9.80;8.80;;;;;;;9.09;69.77;99936.62;1772300;79;21588;-55
2021/10/14 08:42:19;;;;;;;14.87;10.28;;;;;;;9.19;69.59;99937.57;1775593;79;21130;-54
2021/10/14 08:44:46;;;;;;;13.03;9.13;;;;;;;9.28;69.35;99934.52;1773836;79;21096;-55
2021/10/14 08:47:13;;;;;;;9.50;7.75;;;;;;;9.36;69.27;99937.77;1775608;80;21034;-57
2021/10/14 08:49:44;;;;;;;8.88;7.97;;;;;;;9.47;68.99;99940.44;1774082;79;21057;-55
2021/10/14 08:52:12;;;;;;;13.15;7.37;;;;;;;9.61;68.60;99945.73;1780274;79;21099;-54
2021/10/14 08:54:38;;;;;;;7.75;6.37;;;;;;;9.71;68.09;99942.58;1769128;80;22182;-56
2021/10/14 08:57:05;;;;;;;12.50;8.50;;;;;;;9.81;67.70;99943.95;1773555;79;21125;-56
2021/10/14 08:59:31;;;;;;;9.48;8.15;;;;;;;9.90;67.38;99942.69;1769523;78;21118;-56
2021/10/14 09:02:14;;;;;;;9.20;8.03;;;;;;;10.02;67.31;99950.72;1775032;79;21074;-54
2021/10/14 09:04:59;;;;;;;10.85;9.70;;;;;;;10.08;67.02;99947.75;1773963;79;22327;-56
2021/10/14 09:07:31;;;;;;;13.32;9.73;;;;;;;10.12;66.69;99943.50;1770887;79;21044;-55
2021/10/14 09:10:04;;;;;;;10.55;9.38;;;;;;;10.18;66.71;99946.45;1774520;78;21451;-56
2021/10/14 09:12:36;;;;;;;13.08;9.48;;;;;;;10.24;66.57;99948.87;1786478;78;21654;-55
2021/10/14 09:15:14;;;;;;;11.97;8.85;;;;;;;10.33;66.18;99950.28;1785892;78;21326;-56
2021/10/14 09:17:52;;;;;;;9.83;8.83;;;;;;;10.41;65.87;99950.81;1765601;79;21100;-55
2021/10/14 09:20:36;;;;;;;9.65;7.72;;;;;;;10.46;65.51;99955.04;1784110;79;20878;-56
2021/10/14 09:23:12;;;;;;;11.78;8.45;;;;;;;10.52;65.43;99957.95;1771149;79;21037;-56
2021/10/14 09:25:44;;;;;;;11.33;9.43;;;;;;;10.61;65.08;99958.89;1775016;79;20924;-55
2021/10/14 09:28:15;;;;;;;13.05;9.50;;;;;;;10.67;64.53;99959.07;1779583;79;20886;-56
2021/10/14 09:30:50;;;;;;;12.07;8.63;;;;;;;10.66;64.24;99952.81;1771353;79;21123;-56
2021/10/14 09:33:36;;;;;;;10.72;9.45;;;;;;;10.66;64.17;99951.47;1773973;79;20880;-55
2021/10/14 09:36:11;;;;;;;12.25;10.35;;;;;;;10.67;64.05;99952.34;1760440;79;20933;-54
2021/10/14 09:38:38;;;;;;;13.25;10.08;;;;;;;10.70;63.96;99959.81;1768224;79;21303;-54
2021/10/14 09:41:08;;;;;;;13.15;9.63;;;;;;;10.74;63.77;99952.45;1776754;79;20903;-55
2021/10/14 09:43:36;;;;;;;11.28;9.38;;;;;;;10.76;63.66;99963.56;1781181;78;21388;-55
2021/10/14 09:46:03;;;;;;;15.10;9.58;;;;;;;10.77;63.64;99964.45;1771593;79;21043;-56
2021/10/14 09:48:31;;;;;;;10.95;8.90;;;;;;;10.79;63.60;99956.70;1775062;79;21295;-56
2021/10/14 09:50:57;;;;;;;13.43;11.28;;;;;;;10.84;63.07;99961.40;1776055;79;21381;-55
2021/10/14 09:53:25;;;;;;;13.08;10.18;;;;;;;10.87;63.17;99961.27;1775251;79;21455;-56
2021/10/14 09:55:54;;;;;;;14.03;8.70;;;;;;;10.91;63.08;99964.67;1774485;79;21146;-57
2021/10/14 09:58:22;;;;;;;11.33;8.75;;;;;;;10.90;62.74;99966.96;1779804;78;21488;-57
2021/10/14 10:00:48;;;;;;;9.38;8.38;;;;;;;10.92;62.43;99963.73;1776777;78;21448;-56
2021/10/14 10:03:23;;;;;;;10.15;7.35;;;;;;;10.90;62.53;99960.23;1775026;79;21386;-56
2021/10/14 10:05:52;;;;;;;9.23;7.97;;;;;;;10.92;62.41;99961.92;1769518;79;20965;-55
2021/10/14 10:08:31;;;;;;;11.60;8.43;;;;;;;10.91;62.26;99961.52;1773616;79;21415;-56
2021/10/14 10:11:02;;;;;;;9.00;6.90;;;;;;;10.92;61.90;99961.92;1775926;79;21046;-57
2021/10/14 10:13:33;;;;;;;9.70;7.62;;;;;;;10.88;61.54;99968.41;1771644;79;21067;-56
2021/10/14 10:16:17;;;;;;;10.45;9.18;;;;;;;10.82;61.39;99971.83;1773288;78;21179;-55
2021/10/14 10:18:48;;;;;;;7.70;6.30;;;;;;;10.76;61.57;99971.64;1772284;79;21015;-55
2021/10/14 10:21:35;;;;;;;8.10;7.28;;;;;;;10.76;61.77;99978.37;1770966;80;21516;-55
2021/10/14 10:26:47;;;;;;;14.73;8.10;;;;;;;10.73;61.28;99978.50;1864038;74;21949;-57
2021/10/14 10:29:22;;;;;;;6.92;6.25;;;;;;;10.65;61.42;99976.63;1839647;77;21211;-56
2021/10/14 10:31:59;;;;;;;7.90;6.85;;;;;;;10.63;61.71;99985.74;1840342;77;21731;-57
2021/10/14 10:34:47;;;;;;;7.67;6.87;;;;;;;10.63;61.80;99986.62;1843183;77;20969;-56
2021/10/14 10:37:36;;;;;;;7.83;6.62;;;;;;;10.62;61.66;99986.21;1844879;77;21023;-57
2021/10/14 10:40:21;;;;;;;6.53;5.37;;;;;;;10.60;61.68;99988.09;1840466;75;21079;-57
2021/10/14 10:43:08;;;;;;;6.37;5.78;;;;;;;10.61;61.66;99988.03;1840428;77;21316;-56
2021/10/14 10:45:52;;;;;;;7.37;5.33;;;;;;;10.63;61.58;99988.44;1846928;75;21068;-55
2021/10/14 10:48:38;;;;;;;8.05;6.53;;;;;;;10.65;61.52;99983.36;1838124;77;21344;-57
2021/10/14 10:51:06;;;;;;;8.85;7.28;;;;;;;10.67;61.41;99981.95;1846957;76;20917;-56
2021/10/14 10:53:41;;;;;;;4.80;3.65;;;;;;;10.72;61.40;99988.02;1840793;77;21482;-57
2021/10/14 10:56:08;;;;;;;;;;;;;;;10.75;61.20;99982.48;1847497;76;21528;-56
2021/10/14 10:58:45;;;;;;;6.05;4.65;;;;;;;10.79;60.95;99989.02;1841260;77;21147;-56
2021/10/14 11:01:13;;;;;;;8.78;5.55;;;;;;;10.86;60.81;99994.52;1842637;77;21906;-56
2021/10/14 11:03:58;;;;;;;9.10;5.90;;;;;;;10.94;60.62;99991.00;1840069;76;21013;-57
2021/10/14 11:06:28;;;;;;;3.80;3.35;;;;;;;11.04;60.20;99986.55;1839724;77;21390;-56
2021/10/14 11:09:01;;;;;;;4.60;4.30;;;;;;;11.13;59.60;99978.91;1843061;77;21471;-57
2021/10/14 11:11:29;;;;;;;6.65;3.17;;;;;;;11.19;58.86;99979.09;1839897;77;21336;-56
2021/10/14 11:13:56;;;;;;;3.83;2.65;;;;;;;11.24;58.72;99983.77;1841449;77;21037;-57
2021/10/14 11:16:26;;;;;;;3.33;2.60;;;;;;;11.30;58.04;99981.69;1835720;75;21476;-56
2021/10/14 11:18:52;;;;;;;3.98;2.62;;;;;;;11.36;57.05;99988.13;1838849;75;21044;-57
2021/10/14 11:21:21;;;;;;;3.17;2.17;;;;;;;11.39;57.16;99984.42;1841493;77;21599;-56
2021/10/14 11:23:51;;;;;;;2.80;2.42;;;;;;;11.44;56.99;99993.61;1806117;78;22053;-56
2021/10/14 11:26:34;;;;;;;3.50;2.35;;;;;;;11.51;56.20;99989.67;1804296;77;21080;-55
2021/10/14 11:29:15;;;;;;;3.35;1.40;;;;;;;11.55;55.59;99993.98;1803142;77;21049;-57
2021/10/14 11:31:50;;;;;;;3.62;1.50;;;;;;;11.62;54.98;99992.73;1802542;78;21001;-56
2021/10/14 11:34:21;;;;;;;;;;;;;;;11.69;53.68;100000.91;1802835;78;21599;-58
2021/10/14 11:37:00;;;;;;;3.10;1.40;;;;;;;11.72;52.71;99992.69;1808336;78;22174;-57
2021/10/14 11:39:43;;;;;;;1.50;1.30;;;;;;;11.74;52.52;99995.72;1804080;78;20941;-56
2021/10/14 11:42:11;;;;;;;3.27;1.40;;;;;;;11.79;52.20;99989.23;1805093;78;21025;-57
2021/10/14 11:44:40;;;;;;;1.90;1.32;;;;;;;11.82;52.63;99997.19;1774749;78;20871;-57
2021/10/14 11:47:07;;;;;;;2.92;1.27;;;;;;;11.87;52.75;100009.96;1774933;78;21736;-57